sensor_id;sensor_type;location;lat;lon;timestamp;temperature;humidity
61374;DHT22;47242;48.158;-1.586;2024-03-02T05:31:19;5.70;89.60
61374;DHT22;47242;48.158;-1.586;2024-03-02T05:33:45;5.70;89.60
61374;DHT22;47242;48.158;-1.586;2024-03-02T05:36:11;5.70;89.60
61374;DHT22;47242;48.158;-1.586;2024-03-02T05:38:36;5.70;89.40
61374;DHT22;47242;48.158;-1.586;2024-03-02T05:41:02;5.70;89.60
61374;DHT22;47242;48.158;-1.586;2024-03-02T05:43:28;5.70;89.70
61374;DHT22;47242;48.158;-1.586;2024-03-02T05:45:54;5.70;89.80
61374;DHT22;47242;48.158;-1.586;2024-03-02T05:48:20;5.70;89.70
61374;DHT22;47242;48.158;-1.586;2024-03-02T05:50:45;5.70;89.90
61374;DHT22;47242;48.158;-1.586;2024-03-02T05:53:11;5.60;90.00
61374;DHT22;47242;48.158;-1.586;2024-03-02T05:55:36;5.60;90.10
61374;DHT22;47242;48.158;-1.586;2024-03-02T05:58:02;5.60;90.20
61374;DHT22;47242;48.158;-1.586;2024-03-02T06:00:51;5.50;90.30
61374;DHT22;47242;48.158;-1.586;2024-03-02T06:03:16;5.50;90.40
61374;DHT22;47242;48.158;-1.586;2024-03-02T06:05:42;5.50;90.40
61374;DHT22;47242;48.158;-1.586;2024-03-02T06:08:08;5.50;90.40
61374;DHT22;47242;48.158;-1.586;2024-03-02T06:10:33;5.50;90.50
61374;DHT22;47242;48.158;-1.586;2024-03-02T06:12:59;5.50;90.30
61374;DHT22;47242;48.158;-1.586;2024-03-02T06:15:24;5.40;90.40
61374;DHT22;47242;48.158;-1.586;2024-03-02T06:17:50;5.40;90.40
61374;DHT22;47242;48.158;-1.586;2024-03-02T06:20:16;5.50;90.40
61374;DHT22;47242;48.158;-1.586;2024-03-02T06:22:41;5.50;90.40
61374;DHT22;47242;48.158;-1.586;2024-03-02T06:25:07;5.60;90.30
61374;DHT22;47242;48.158;-1.586;2024-03-02T06:27:33;5.60;90.40
61374;DHT22;47242;48.158;-1.586;2024-03-02T06:29:58;5.70;90.20
61374;DHT22;47242;48.158;-1.586;2024-03-02T06:32:24;5.70;90.10
61374;DHT22;47242;48.158;-1.586;2024-03-02T06:34:50;5.60;90.10
61374;DHT22;47242;48.158;-1.586;2024-03-02T06:37:16;5.60;90.10
61374;DHT22;47242;48.158;-1.586;2024-03-02T06:39:41;5.50;90.00
61374;DHT22;47242;48.158;-1.586;2024-03-02T06:42:07;5.50;89.90
61374;DHT22;47242;48.158;-1.586;2024-03-02T06:44:34;5.50;90.00
61374;DHT22;47242;48.158;-1.586;2024-03-02T06:46:59;5.50;90.20
61374;DHT22;47242;48.158;-1.586;2024-03-02T06:49:25;5.50;90.10
61374;DHT22;47242;48.158;-1.586;2024-03-02T06:51:51;5.60;90.10
61374;DHT22;47242;48.158;-1.586;2024-03-02T06:54:16;5.50;90.10
61374;DHT22;47242;48.158;-1.586;2024-03-02T06:56:42;5.60;90.10
61374;DHT22;47242;48.158;-1.586;2024-03-02T06:59:08;5.60;90.00
61374;DHT22;47242;48.158;-1.586;2024-03-02T07:01:33;5.60;90.00
61374;DHT22;47242;48.158;-1.586;2024-03-02T07:04:00;5.60;89.90
61374;DHT22;47242;48.158;-1.586;2024-03-02T07:06:25;5.70;89.90
61374;DHT22;47242;48.158;-1.586;2024-03-02T07:08:51;5.70;89.80
61374;DHT22;47242;48.158;-1.586;2024-03-02T07:11:16;5.70;89.70
61374;DHT22;47242;48.158;-1.586;2024-03-02T07:13:42;5.70;89.70
61374;DHT22;47242;48.158;-1.586;2024-03-02T07:16:07;5.70;89.60
61374;DHT22;47242;48.158;-1.586;2024-03-02T07:18:36;5.70;89.60
61374;DHT22;47242;48.158;-1.586;2024-03-02T07:21:10;5.70;89.60
61374;DHT22;47242;48.158;-1.586;2024-03-02T07:23:36;5.70;89.50
61374;DHT22;47242;48.158;-1.586;2024-03-02T07:26:01;5.70;89.50
61374;DHT22;47242;48.158;-1.586;2024-03-02T07:28:27;5.80;89.50
61374;DHT22;47242;48.158;-1.586;2024-03-02T07:31:04;5.80;89.50
61374;DHT22;47242;48.158;-1.586;2024-03-02T07:33:30;5.80;89.50
61374;DHT22;47242;48.158;-1.586;2024-03-02T07:35:56;5.70;89.50
61374;DHT22;47242;48.158;-1.586;2024-03-02T07:38:23;5.70;89.60
61374;DHT22;47242;48.158;-1.586;2024-03-02T07:40:51;5.70;89.60
61374;DHT22;47242;48.158;-1.586;2024-03-02T07:43:17;5.70;89.60
61374;DHT22;47242;48.158;-1.586;2024-03-02T07:45:44;5.70;89.60
61374;DHT22;47242;48.158;-1.586;2024-03-02T07:48:10;5.80;89.50
61374;DHT22;47242;48.158;-1.586;2024-03-02T07:50:36;5.80;89.40
61374;DHT22;47242;48.158;-1.586;2024-03-02T07:53:03;5.80;89.20
61374;DHT22;47242;48.158;-1.586;2024-03-02T07:55:29;5.80;89.20
61374;DHT22;47242;48.158;-1.586;2024-03-02T07:57:55;5.90;89.20
61374;DHT22;47242;48.158;-1.586;2024-03-02T08:00:21;5.90;89.10
61374;DHT22;47242;48.158;-1.586;2024-03-02T08:02:48;6.30;88.70
61374;DHT22;47242;48.158;-1.586;2024-03-02T08:05:13;6.60;87.80
61374;DHT22;47242;48.158;-1.586;2024-03-02T08:07:39;7.00;87.60
61374;DHT22;47242;48.158;-1.586;2024-03-02T08:10:06;7.20;86.80
61374;DHT22;47242;48.158;-1.586;2024-03-02T08:12:32;7.70;85.50
61374;DHT22;47242;48.158;-1.586;2024-03-02T08:14:58;7.50;85.80
61374;DHT22;47242;48.158;-1.586;2024-03-02T08:17:23;7.20;85.90
61374;DHT22;47242;48.158;-1.586;2024-03-02T08:19:49;7.00;86.50
61374;DHT22;47242;48.158;-1.586;2024-03-02T08:22:15;6.80;87.00
61374;DHT22;47242;48.158;-1.586;2024-03-02T08:24:41;6.70;87.60
61374;DHT22;47242;48.158;-1.586;2024-03-02T08:27:06;6.60;87.70
61374;DHT22;47242;48.158;-1.586;2024-03-02T08:29:32;6.50;87.90
61374;DHT22;47242;48.158;-1.586;2024-03-02T08:31:57;6.50;88.10
61374;DHT22;47242;48.158;-1.586;2024-03-02T08:34:23;6.60;88.20
61374;DHT22;47242;48.158;-1.586;2024-03-02T08:36:49;6.60;88.20
61374;DHT22;47242;48.158;-1.586;2024-03-02T08:39:15;6.70;88.00
61374;DHT22;47242;48.158;-1.586;2024-03-02T08:41:47;6.70;88.00
61374;DHT22;47242;48.158;-1.586;2024-03-02T08:44:13;6.80;87.90
61374;DHT22;47242;48.158;-1.586;2024-03-02T08:46:40;6.80;87.50
61374;DHT22;47242;48.158;-1.586;2024-03-02T08:49:06;6.80;87.50
61374;DHT22;47242;48.158;-1.586;2024-03-02T08:51:32;6.90;87.30
61374;DHT22;47242;48.158;-1.586;2024-03-02T08:53:58;7.00;87.10
61374;DHT22;47242;48.158;-1.586;2024-03-02T08:56:25;7.20;86.80
61374;DHT22;47242;48.158;-1.586;2024-03-02T08:58:51;7.20;86.40
61374;DHT22;47242;48.158;-1.586;2024-03-02T09:01:17;7.20;86.30
61374;DHT22;47242;48.158;-1.586;2024-03-02T09:03:43;7.50;86.00
61374;DHT22;47242;48.158;-1.586;2024-03-02T09:06:13;7.80;85.70
61374;DHT22;47242;48.158;-1.586;2024-03-02T09:08:39;8.00;85.10
61374;DHT22;47242;48.158;-1.586;2024-03-02T09:11:06;8.00;84.70
61374;DHT22;47242;48.158;-1.586;2024-03-02T09:13:32;7.90;84.60
61374;DHT22;47242;48.158;-1.586;2024-03-02T09:15:58;7.90;84.60
61374;DHT22;47242;48.158;-1.586;2024-03-02T09:18:24;7.80;84.70
61374;DHT22;47242;48.158;-1.586;2024-03-02T09:20:49;7.60;85.20
61374;DHT22;47242;48.158;-1.586;2024-03-02T09:23:15;7.50;85.20
61374;DHT22;47242;48.158;-1.586;2024-03-02T09:25:41;7.50;85.50
61374;DHT22;47242;48.158;-1.586;2024-03-02T09:28:06;7.40;85.50
61374;DHT22;47242;48.158;-1.586;2024-03-02T09:30:32;7.50;85.70
61374;DHT22;47242;48.158;-1.586;2024-03-02T09:32:58;8.40;84.40
61374;DHT22;47242;48.158;-1.586;2024-03-02T09:35:24;9.20;82.80
61374;DHT22;47242;48.158;-1.586;2024-03-02T09:37:50;10.30;80.80
61374;DHT22;47242;48.158;-1.586;2024-03-02T09:40:16;11.50;77.90
61374;DHT22;47242;48.158;-1.586;2024-03-02T09:42:42;12.30;75.60
61374;DHT22;47242;48.158;-1.586;2024-03-02T09:45:09;12.40;72.50
61374;DHT22;47242;48.158;-1.586;2024-03-02T09:47:35;13.00;71.30
61374;DHT22;47242;48.158;-1.586;2024-03-02T09:50:01;13.50;69.70
61374;DHT22;47242;48.158;-1.586;2024-03-02T09:52:26;13.00;69.20
61374;DHT22;47242;48.158;-1.586;2024-03-02T09:54:52;12.30;70.90
61374;DHT22;47242;48.158;-1.586;2024-03-02T09:57:18;11.80;72.40
61374;DHT22;47242;48.158;-1.586;2024-03-02T09:59:43;11.20;73.40
61374;DHT22;47242;48.158;-1.586;2024-03-02T10:02:10;11.10;74.10
61374;DHT22;47242;48.158;-1.586;2024-03-02T10:04:36;11.30;74.10
61374;DHT22;47242;48.158;-1.586;2024-03-02T10:09:38;11.70;73.60
61374;DHT22;47242;48.158;-1.586;2024-03-02T10:12:04;11.50;73.40
61374;DHT22;47242;48.158;-1.586;2024-03-02T10:14:31;11.50;74.00
61374;DHT22;47242;48.158;-1.586;2024-03-02T10:17:05;11.60;74.10
61374;DHT22;47242;48.158;-1.586;2024-03-02T10:19:32;12.10;72.90
61374;DHT22;47242;48.158;-1.586;2024-03-02T10:22:05;12.30;72.60
61374;DHT22;47242;48.158;-1.586;2024-03-02T10:24:42;12.20;73.10
61374;DHT22;47242;48.158;-1.586;2024-03-02T10:27:15;11.70;73.40
61374;DHT22;47242;48.158;-1.586;2024-03-02T10:29:41;11.20;74.30
61374;DHT22;47242;48.158;-1.586;2024-03-02T10:32:11;10.80;75.10
61374;DHT22;47242;48.158;-1.586;2024-03-02T10:34:37;10.60;76.20
61374;DHT22;47242;48.158;-1.586;2024-03-02T10:37:03;10.40;76.60
61374;DHT22;47242;48.158;-1.586;2024-03-02T10:39:30;10.40;77.00
61374;DHT22;47242;48.158;-1.586;2024-03-02T10:41:57;10.30;77.00
61374;DHT22;47242;48.158;-1.586;2024-03-02T10:44:23;10.10;77.00
61374;DHT22;47242;48.158;-1.586;2024-03-02T10:46:51;10.20;77.50
61374;DHT22;47242;48.158;-1.586;2024-03-02T10:49:19;10.30;77.40
61374;DHT22;47242;48.158;-1.586;2024-03-02T10:51:46;10.40;77.40
61374;DHT22;47242;48.158;-1.586;2024-03-02T10:54:12;10.50;77.40
61374;DHT22;47242;48.158;-1.586;2024-03-02T10:56:42;10.50;77.40
61374;DHT22;47242;48.158;-1.586;2024-03-02T10:59:28;10.40;77.30
61374;DHT22;47242;48.158;-1.586;2024-03-02T11:01:59;10.40;77.50
61374;DHT22;47242;48.158;-1.586;2024-03-02T11:04:29;10.30;77.20
61374;DHT22;47242;48.158;-1.586;2024-03-02T11:06:59;10.50;76.80
61374;DHT22;47242;48.158;-1.586;2024-03-02T11:09:27;10.50;77.00
61374;DHT22;47242;48.158;-1.586;2024-03-02T11:12:09;10.60;76.60
61374;DHT22;47242;48.158;-1.586;2024-03-02T11:14:41;10.60;76.10
61374;DHT22;47242;48.158;-1.586;2024-03-02T11:17:09;10.70;76.20
61374;DHT22;47242;48.158;-1.586;2024-03-02T11:19:40;10.70;76.40
61374;DHT22;47242;48.158;-1.586;2024-03-02T11:22:06;10.90;76.70
61374;DHT22;47242;48.158;-1.586;2024-03-02T11:24:33;11.10;76.70
61374;DHT22;47242;48.158;-1.586;2024-03-02T11:27:06;11.20;75.80
61374;DHT22;47242;48.158;-1.586;2024-03-02T11:32:17;11.60;75.90
61374;DHT22;47242;48.158;-1.586;2024-03-02T11:34:47;11.60;75.40
61374;DHT22;47242;48.158;-1.586;2024-03-02T11:37:18;11.60;75.30
61374;DHT22;47242;48.158;-1.586;2024-03-02T11:39:46;11.80;74.50
61374;DHT22;47242;48.158;-1.586;2024-03-02T11:42:13;11.90;74.50
61374;DHT22;47242;48.158;-1.586;2024-03-02T11:44:44;11.90;74.10
61374;DHT22;47242;48.158;-1.586;2024-03-02T11:47:13;11.70;73.80
61374;DHT22;47242;48.158;-1.586;2024-03-02T11:49:49;11.50;73.70
61374;DHT22;47242;48.158;-1.586;2024-03-02T11:52:16;11.20;73.50
61374;DHT22;47242;48.158;-1.586;2024-03-02T11:54:45;11.00;74.70
61374;DHT22;47242;48.158;-1.586;2024-03-02T11:57:16;10.90;75.20
61374;DHT22;47242;48.158;-1.586;2024-03-02T11:59:43;10.80;75.10
61374;DHT22;47242;48.158;-1.586;2024-03-02T12:02:18;10.70;75.50
61374;DHT22;47242;48.158;-1.586;2024-03-02T12:04:45;10.70;75.50
61374;DHT22;47242;48.158;-1.586;2024-03-02T12:07:11;10.70;75.70
61374;DHT22;47242;48.158;-1.586;2024-03-02T12:09:37;10.70;75.60
61374;DHT22;47242;48.158;-1.586;2024-03-02T12:12:03;10.60;74.50
61374;DHT22;47242;48.158;-1.586;2024-03-02T12:14:30;10.70;74.80
61374;DHT22;47242;48.158;-1.586;2024-03-02T12:16:55;10.60;75.10
61374;DHT22;47242;48.158;-1.586;2024-03-02T12:19:22;10.50;75.50
61374;DHT22;47242;48.158;-1.586;2024-03-02T12:21:48;10.40;75.20
61374;DHT22;47242;48.158;-1.586;2024-03-02T12:24:14;10.30;75.70
61374;DHT22;47242;48.158;-1.586;2024-03-02T12:26:40;10.40;76.00
61374;DHT22;47242;48.158;-1.586;2024-03-02T12:29:05;10.70;75.30
61374;DHT22;47242;48.158;-1.586;2024-03-02T12:31:31;11.00;75.20
61374;DHT22;47242;48.158;-1.586;2024-03-02T12:33:57;11.10;74.70
61374;DHT22;47242;48.158;-1.586;2024-03-02T12:36:23;11.00;74.00
61374;DHT22;47242;48.158;-1.586;2024-03-02T12:38:52;11.00;72.50
61374;DHT22;47242;48.158;-1.586;2024-03-02T12:41:18;10.90;72.50
61374;DHT22;47242;48.158;-1.586;2024-03-02T12:43:44;10.70;72.60
61374;DHT22;47242;48.158;-1.586;2024-03-02T12:46:10;10.70;73.50
61374;DHT22;47242;48.158;-1.586;2024-03-02T12:48:36;10.80;73.30
61374;DHT22;47242;48.158;-1.586;2024-03-02T12:51:02;11.10;73.00
61374;DHT22;47242;48.158;-1.586;2024-03-02T12:53:28;11.00;71.70
61374;DHT22;47242;48.158;-1.586;2024-03-02T12:55:54;11.00;71.90
61374;DHT22;47242;48.158;-1.586;2024-03-02T12:58:22;10.90;73.20
61374;DHT22;47242;48.158;-1.586;2024-03-02T13:00:48;10.90;73.20
61374;DHT22;47242;48.158;-1.586;2024-03-02T13:03:14;10.80;72.70
61374;DHT22;47242;48.158;-1.586;2024-03-02T13:05:41;10.70;72.60
61374;DHT22;47242;48.158;-1.586;2024-03-02T13:08:06;10.70;72.80
61374;DHT22;47242;48.158;-1.586;2024-03-02T13:10:33;10.70;72.30
61374;DHT22;47242;48.158;-1.586;2024-03-02T13:12:59;10.70;73.00
61374;DHT22;47242;48.158;-1.586;2024-03-02T13:15:28;10.70;72.80
61374;DHT22;47242;48.158;-1.586;2024-03-02T13:17:58;10.70;73.10
61374;DHT22;47242;48.158;-1.586;2024-03-02T13:20:30;10.90;73.10
61374;DHT22;47242;48.158;-1.586;2024-03-02T13:22:57;11.00;72.50
61374;DHT22;47242;48.158;-1.586;2024-03-02T13:25:22;11.00;72.50
61374;DHT22;47242;48.158;-1.586;2024-03-02T13:27:48;11.10;72.40
61374;DHT22;47242;48.158;-1.586;2024-03-02T13:30:14;11.20;73.20
61374;DHT22;47242;48.158;-1.586;2024-03-02T13:32:39;11.20;73.40
61374;DHT22;47242;48.158;-1.586;2024-03-02T13:35:05;11.20;73.40
61374;DHT22;47242;48.158;-1.586;2024-03-02T13:37:30;11.30;72.80
61374;DHT22;47242;48.158;-1.586;2024-03-02T13:39:56;11.30;72.80
61374;DHT22;47242;48.158;-1.586;2024-03-02T13:42:22;11.30;72.30
61374;DHT22;47242;48.158;-1.586;2024-03-02T13:44:47;11.30;72.10
61374;DHT22;47242;48.158;-1.586;2024-03-02T13:47:15;11.30;71.80
61374;DHT22;47242;48.158;-1.586;2024-03-02T13:49:41;11.30;72.10
61374;DHT22;47242;48.158;-1.586;2024-03-02T13:52:10;11.20;72.10
61374;DHT22;47242;48.158;-1.586;2024-03-02T13:54:44;11.20;71.20
61374;DHT22;47242;48.158;-1.586;2024-03-02T13:57:10;11.20;71.30
61374;DHT22;47242;48.158;-1.586;2024-03-02T13:59:37;11.10;69.40
61374;DHT22;47242;48.158;-1.586;2024-03-02T14:02:03;11.10;68.40
61374;DHT22;47242;48.158;-1.586;2024-03-02T14:04:33;11.10;67.60
61374;DHT22;47242;48.158;-1.586;2024-03-02T14:07:00;11.20;68.80
61374;DHT22;47242;48.158;-1.586;2024-03-02T14:09:25;11.50;67.80
61374;DHT22;47242;48.158;-1.586;2024-03-02T14:11:52;11.80;66.60
61374;DHT22;47242;48.158;-1.586;2024-03-02T14:14:18;11.90;65.60
61374;DHT22;47242;48.158;-1.586;2024-03-02T14:16:44;11.90;64.60
61374;DHT22;47242;48.158;-1.586;2024-03-02T14:19:10;11.80;65.20
61374;DHT22;47242;48.158;-1.586;2024-03-02T14:21:40;11.80;65.00
61374;DHT22;47242;48.158;-1.586;2024-03-02T14:24:05;11.70;65.20
61374;DHT22;47242;48.158;-1.586;2024-03-02T14:26:35;11.80;65.50
61374;DHT22;47242;48.158;-1.586;2024-03-02T14:29:02;11.90;64.60
61374;DHT22;47242;48.158;-1.586;2024-03-02T14:31:28;11.90;64.30
61374;DHT22;47242;48.158;-1.586;2024-03-02T14:33:54;12.20;64.10
61374;DHT22;47242;48.158;-1.586;2024-03-02T14:36:19;12.30;63.30
61374;DHT22;47242;48.158;-1.586;2024-03-02T14:38:46;12.20;62.60
61374;DHT22;47242;48.158;-1.586;2024-03-02T14:41:12;12.30;62.00
61374;DHT22;47242;48.158;-1.586;2024-03-02T14:43:38;12.40;62.70
61374;DHT22;47242;48.158;-1.586;2024-03-02T14:46:04;12.40;62.40
61374;DHT22;47242;48.158;-1.586;2024-03-02T14:48:30;12.30;62.80
61374;DHT22;47242;48.158;-1.586;2024-03-02T14:50:56;12.30;62.80
61374;DHT22;47242;48.158;-1.586;2024-03-02T14:53:22;12.10;63.60
61374;DHT22;47242;48.158;-1.586;2024-03-02T14:55:48;12.10;63.20
61374;DHT22;47242;48.158;-1.586;2024-03-02T14:58:13;12.00;63.30
61374;DHT22;47242;48.158;-1.586;2024-03-02T15:00:39;11.90;63.70
61374;DHT22;47242;48.158;-1.586;2024-03-02T15:03:05;11.80;64.10
61374;DHT22;47242;48.158;-1.586;2024-03-02T15:05:34;11.80;64.70
61374;DHT22;47242;48.158;-1.586;2024-03-02T15:08:00;11.80;64.30
61374;DHT22;47242;48.158;-1.586;2024-03-02T15:10:27;11.70;64.40
61374;DHT22;47242;48.158;-1.586;2024-03-02T15:12:53;11.70;64.40
61374;DHT22;47242;48.158;-1.586;2024-03-02T15:15:19;11.70;64.30
61374;DHT22;47242;48.158;-1.586;2024-03-02T15:17:45;11.60;64.80
61374;DHT22;47242;48.158;-1.586;2024-03-02T15:20:11;11.50;63.90
61374;DHT22;47242;48.158;-1.586;2024-03-02T15:22:36;11.50;64.50
61374;DHT22;47242;48.158;-1.586;2024-03-02T15:25:02;11.50;63.90
61374;DHT22;47242;48.158;-1.586;2024-03-02T15:27:28;11.50;63.60
61374;DHT22;47242;48.158;-1.586;2024-03-02T15:29:54;11.50;63.50
61374;DHT22;47242;48.158;-1.586;2024-03-02T15:32:22;11.50;63.60
61374;DHT22;47242;48.158;-1.586;2024-03-02T15:34:48;11.60;63.80
61374;DHT22;47242;48.158;-1.586;2024-03-02T15:37:13;11.60;63.50
61374;DHT22;47242;48.158;-1.586;2024-03-02T15:39:39;11.70;63.80
61374;DHT22;47242;48.158;-1.586;2024-03-02T15:42:05;11.70;63.60
61374;DHT22;47242;48.158;-1.586;2024-03-02T15:44:31;11.60;63.70
61374;DHT22;47242;48.158;-1.586;2024-03-02T15:46:58;11.60;63.20
61374;DHT22;47242;48.158;-1.586;2024-03-02T15:49:24;11.60;62.30
61374;DHT22;47242;48.158;-1.586;2024-03-02T15:51:50;11.50;63.00
61374;DHT22;47242;48.158;-1.586;2024-03-02T15:54:15;11.60;63.20
61374;DHT22;47242;48.158;-1.586;2024-03-02T15:56:41;11.60;62.80
61374;DHT22;47242;48.158;-1.586;2024-03-02T15:59:07;11.50;62.00
61374;DHT22;47242;48.158;-1.586;2024-03-02T16:01:32;11.30;61.70
61374;DHT22;47242;48.158;-1.586;2024-03-02T16:03:58;11.30;62.80
61374;DHT22;47242;48.158;-1.586;2024-03-02T16:06:23;11.30;62.60
61374;DHT22;47242;48.158;-1.586;2024-03-02T16:08:49;11.10;63.00
61374;DHT22;47242;48.158;-1.586;2024-03-02T16:11:15;11.00;62.60
61374;DHT22;47242;48.158;-1.586;2024-03-02T16:13:40;10.80;62.10
61374;DHT22;47242;48.158;-1.586;2024-03-02T16:16:06;10.60;62.80
61374;DHT22;47242;48.158;-1.586;2024-03-02T16:18:31;10.60;63.80
61374;DHT22;47242;48.158;-1.586;2024-03-02T16:20:59;10.50;64.40
61374;DHT22;47242;48.158;-1.586;2024-03-02T16:23:25;10.30;63.40
61374;DHT22;47242;48.158;-1.586;2024-03-02T16:25:50;10.30;64.80
61374;DHT22;47242;48.158;-1.586;2024-03-02T16:28:16;10.30;65.00
61374;DHT22;47242;48.158;-1.586;2024-03-02T16:30:41;10.30;64.90
61374;DHT22;47242;48.158;-1.586;2024-03-02T16:33:07;10.20;65.40
61374;DHT22;47242;48.158;-1.586;2024-03-02T16:35:33;10.20;65.50
61374;DHT22;47242;48.158;-1.586;2024-03-02T16:37:59;10.20;66.00
61374;DHT22;47242;48.158;-1.586;2024-03-02T16:40:24;10.20;65.80
61374;DHT22;47242;48.158;-1.586;2024-03-02T16:42:50;10.30;65.70
61374;DHT22;47242;48.158;-1.586;2024-03-02T16:45:16;10.20;65.90
61374;DHT22;47242;48.158;-1.586;2024-03-02T16:47:41;10.20;65.80
61374;DHT22;47242;48.158;-1.586;2024-03-02T16:50:07;10.30;66.00
61374;DHT22;47242;48.158;-1.586;2024-03-02T16:52:36;10.20;65.80
61374;DHT22;47242;48.158;-1.586;2024-03-02T16:55:02;10.10;65.80
61374;DHT22;47242;48.158;-1.586;2024-03-02T16:57:28;10.00;66.00
61374;DHT22;47242;48.158;-1.586;2024-03-02T16:59:54;10.00;67.10
61374;DHT22;47242;48.158;-1.586;2024-03-02T17:02:19;10.00;66.70
61374;DHT22;47242;48.158;-1.586;2024-03-02T17:04:45;9.90;66.70
61374;DHT22;47242;48.158;-1.586;2024-03-02T17:07:11;9.90;67.00
61374;DHT22;47242;48.158;-1.586;2024-03-02T17:09:36;9.90;66.80
61374;DHT22;47242;48.158;-1.586;2024-03-02T17:12:02;9.90;66.80
61374;DHT22;47242;48.158;-1.586;2024-03-02T17:14:28;9.90;66.10
61374;DHT22;47242;48.158;-1.586;2024-03-02T17:16:53;9.90;66.50
61374;DHT22;47242;48.158;-1.586;2024-03-02T17:19:19;9.80;66.50
61374;DHT22;47242;48.158;-1.586;2024-03-02T17:21:45;9.70;66.40
61374;DHT22;47242;48.158;-1.586;2024-03-02T17:24:11;9.70;66.60
61374;DHT22;47242;48.158;-1.586;2024-03-02T17:26:36;9.70;67.20
61374;DHT22;47242;48.158;-1.586;2024-03-02T17:29:05;9.50;67.00
61374;DHT22;47242;48.158;-1.586;2024-03-02T17:31:30;9.50;67.20
61374;DHT22;47242;48.158;-1.586;2024-03-02T17:33:56;9.40;67.30
61374;DHT22;47242;48.158;-1.586;2024-03-02T17:36:22;9.30;67.90
61374;DHT22;47242;48.158;-1.586;2024-03-02T17:38:47;9.30;68.50
61374;DHT22;47242;48.158;-1.586;2024-03-02T17:41:13;9.20;68.80
61374;DHT22;47242;48.158;-1.586;2024-03-02T17:43:39;9.10;69.90
61374;DHT22;47242;48.158;-1.586;2024-03-02T17:46:05;9.00;70.20
61374;DHT22;47242;48.158;-1.586;2024-03-02T17:48:31;8.80;70.80
61374;DHT22;47242;48.158;-1.586;2024-03-02T17:50:56;8.70;71.20
61374;DHT22;47242;48.158;-1.586;2024-03-02T17:53:22;8.60;71.50
61374;DHT22;47242;48.158;-1.586;2024-03-02T17:55:48;8.60;72.00
61374;DHT22;47242;48.158;-1.586;2024-03-02T17:58:13;8.60;72.00
61374;DHT22;47242;48.158;-1.586;2024-03-02T18:00:39;8.50;72.50
61374;DHT22;47242;48.158;-1.586;2024-03-02T18:03:06;8.40;72.30
61374;DHT22;47242;48.158;-1.586;2024-03-02T18:05:32;8.40;72.20
61374;DHT22;47242;48.158;-1.586;2024-03-02T18:07:58;8.40;71.70
61374;DHT22;47242;48.158;-1.586;2024-03-02T18:10:23;8.30;72.20
61374;DHT22;47242;48.158;-1.586;2024-03-02T18:12:49;8.30;72.20
61374;DHT22;47242;48.158;-1.586;2024-03-02T18:15:14;8.20;72.60
61374;DHT22;47242;48.158;-1.586;2024-03-02T18:17:40;8.20;73.40
61374;DHT22;47242;48.158;-1.586;2024-03-02T18:20:06;8.10;73.30
61374;DHT22;47242;48.158;-1.586;2024-03-02T18:22:34;8.00;73.50
61374;DHT22;47242;48.158;-1.586;2024-03-02T18:25:00;8.00;73.60
61374;DHT22;47242;48.158;-1.586;2024-03-02T18:27:26;8.10;73.20
61374;DHT22;47242;48.158;-1.586;2024-03-02T18:29:52;8.00;73.30
61374;DHT22;47242;48.158;-1.586;2024-03-02T18:32:19;8.00;73.50
61374;DHT22;47242;48.158;-1.586;2024-03-02T18:34:44;8.00;73.70
61374;DHT22;47242;48.158;-1.586;2024-03-02T18:37:12;8.00;73.70
61374;DHT22;47242;48.158;-1.586;2024-03-02T18:39:38;7.90;73.70
61374;DHT22;47242;48.158;-1.586;2024-03-02T18:42:04;7.80;74.80
61374;DHT22;47242;48.158;-1.586;2024-03-02T18:44:30;7.80;74.50
61374;DHT22;47242;48.158;-1.586;2024-03-02T18:46:55;7.80;74.50
61374;DHT22;47242;48.158;-1.586;2024-03-02T18:49:21;7.80;74.40
61374;DHT22;47242;48.158;-1.586;2024-03-02T18:51:48;7.70;75.60
61374;DHT22;47242;48.158;-1.586;2024-03-02T18:54:14;7.70;75.80
61374;DHT22;47242;48.158;-1.586;2024-03-02T18:56:41;7.70;76.00
61374;DHT22;47242;48.158;-1.586;2024-03-02T18:59:07;7.60;76.10
61374;DHT22;47242;48.158;-1.586;2024-03-02T19:01:32;7.50;76.50
61374;DHT22;47242;48.158;-1.586;2024-03-02T19:03:58;7.50;76.70
61374;DHT22;47242;48.158;-1.586;2024-03-02T19:06:24;7.50;76.90
61374;DHT22;47242;48.158;-1.586;2024-03-02T19:08:49;7.50;77.10
61374;DHT22;47242;48.158;-1.586;2024-03-02T19:11:16;7.40;77.00
61374;DHT22;47242;48.158;-1.586;2024-03-02T19:13:42;7.40;76.70
61374;DHT22;47242;48.158;-1.586;2024-03-02T19:16:11;7.50;76.80
61374;DHT22;47242;48.158;-1.586;2024-03-02T19:18:38;7.40;76.70
61374;DHT22;47242;48.158;-1.586;2024-03-02T19:21:05;7.40;76.80
61374;DHT22;47242;48.158;-1.586;2024-03-02T19:23:30;7.50;77.10
61374;DHT22;47242;48.158;-1.586;2024-03-02T19:25:56;7.40;77.20
61374;DHT22;47242;48.158;-1.586;2024-03-02T19:28:22;7.40;77.40
61374;DHT22;47242;48.158;-1.586;2024-03-02T19:30:48;7.40;77.80
61374;DHT22;47242;48.158;-1.586;2024-03-02T19:33:14;7.50;77.80
61374;DHT22;47242;48.158;-1.586;2024-03-02T19:35:45;7.50;78.20
61374;DHT22;47242;48.158;-1.586;2024-03-02T19:38:12;7.50;77.70
61374;DHT22;47242;48.158;-1.586;2024-03-02T19:40:38;7.50;78.20
61374;DHT22;47242;48.158;-1.586;2024-03-02T19:43:04;7.60;77.80
61374;DHT22;47242;48.158;-1.586;2024-03-02T19:45:30;7.50;77.70
61374;DHT22;47242;48.158;-1.586;2024-03-02T19:47:55;7.40;78.10
61374;DHT22;47242;48.158;-1.586;2024-03-02T19:50:21;7.40;78.10
61374;DHT22;47242;48.158;-1.586;2024-03-02T19:52:47;7.30;77.90
61374;DHT22;47242;48.158;-1.586;2024-03-02T19:55:13;7.30;77.90
61374;DHT22;47242;48.158;-1.586;2024-03-02T19:57:39;7.40;78.00
61374;DHT22;47242;48.158;-1.586;2024-03-02T20:00:13;7.30;78.30
61374;DHT22;47242;48.158;-1.586;2024-03-02T20:02:40;7.40;78.40
61374;DHT22;47242;48.158;-1.586;2024-03-02T20:05:06;7.30;78.50
61374;DHT22;47242;48.158;-1.586;2024-03-02T20:07:33;7.40;78.60
61374;DHT22;47242;48.158;-1.586;2024-03-02T20:10:03;7.40;78.50
61374;DHT22;47242;48.158;-1.586;2024-03-02T20:12:32;7.40;78.70
61374;DHT22;47242;48.158;-1.586;2024-03-02T20:14:58;7.50;78.70
61374;DHT22;47242;48.158;-1.586;2024-03-02T20:17:23;7.50;78.80
61374;DHT22;47242;48.158;-1.586;2024-03-02T20:19:49;7.50;78.80
61374;DHT22;47242;48.158;-1.586;2024-03-02T20:22:14;7.50;78.80
61374;DHT22;47242;48.158;-1.586;2024-03-02T20:24:40;7.50;78.70
61374;DHT22;47242;48.158;-1.586;2024-03-02T20:27:06;7.60;78.90
61374;DHT22;47242;48.158;-1.586;2024-03-02T20:29:32;7.50;79.00
61374;DHT22;47242;48.158;-1.586;2024-03-02T20:31:58;7.50;79.20
61374;DHT22;47242;48.158;-1.586;2024-03-02T20:34:24;7.50;79.40
61374;DHT22;47242;48.158;-1.586;2024-03-02T20:36:50;7.50;79.40
61374;DHT22;47242;48.158;-1.586;2024-03-02T20:39:16;7.50;78.90
61374;DHT22;47242;48.158;-1.586;2024-03-02T20:41:43;7.50;78.60
61374;DHT22;47242;48.158;-1.586;2024-03-02T20:44:12;7.50;78.30
61374;DHT22;47242;48.158;-1.586;2024-03-02T20:46:42;7.50;78.40
61374;DHT22;47242;48.158;-1.586;2024-03-02T20:49:09;7.60;78.30
61374;DHT22;47242;48.158;-1.586;2024-03-02T20:51:35;7.60;78.20
61374;DHT22;47242;48.158;-1.586;2024-03-02T20:54:00;7.60;78.10